createdAt,value
2018-10-05T00:01:00.950Z,97.70
2018-10-05T00:03:29.222Z,97.80
2018-10-05T00:05:58.958Z,97.70
2018-10-05T00:08:30.450Z,97.70
2018-10-05T00:10:58.916Z,97.70
2018-10-05T00:13:29.297Z,97.70
2018-10-05T00:15:57.605Z,97.70
2018-10-05T00:18:25.890Z,97.80
2018-10-05T00:20:54.258Z,97.60
2018-10-05T00:23:22.605Z,97.40
2018-10-05T00:25:50.941Z,97.20
2018-10-05T00:28:19.270Z,97.00
2018-10-05T00:30:47.816Z,96.80
2018-10-05T00:33:16.073Z,96.90
2018-10-05T00:35:44.310Z,96.90
2018-10-05T00:38:12.582Z,96.90
2018-10-05T00:40:40.889Z,96.60
2018-10-05T00:43:09.176Z,96.60
2018-10-05T00:45:37.451Z,96.60
2018-10-05T00:48:05.754Z,96.60
2018-10-05T00:50:34.043Z,96.50
2018-10-05T00:53:05.294Z,96.30
2018-10-05T00:55:33.556Z,95.80
2018-10-05T00:58:01.924Z,94.90
2018-10-05T01:00:30.323Z,94.40
2018-10-05T01:02:58.574Z,93.70
2018-10-05T01:05:27.077Z,93.20
2018-10-05T01:07:55.310Z,93.30
2018-10-05T01:15:17.029Z,93.10
2018-10-05T01:17:45.268Z,93.60
2018-10-05T01:20:13.512Z,93.90
2018-10-05T01:22:41.802Z,94.60
2018-10-05T01:25:10.134Z,94.50
2018-10-05T01:32:37.851Z,94.80
2018-10-05T01:35:06.107Z,95.30
2018-10-05T01:37:34.298Z,95.40
2018-10-05T01:40:02.878Z,95.90
2018-10-05T01:42:31.714Z,95.70
2018-10-05T01:45:00.278Z,95.80
2018-10-05T01:47:28.852Z,95.90
2018-10-05T01:49:57.450Z,95.90
2018-10-05T01:52:25.681Z,95.90
2018-10-05T01:54:54.027Z,95.90
2018-10-05T01:57:22.260Z,95.90
2018-10-05T01:59:50.525Z,96.00
2018-10-05T02:02:18.798Z,96.00
2018-10-05T02:04:47.118Z,96.10
2018-10-05T02:07:15.488Z,96.20
2018-10-05T02:09:43.814Z,96.30
2018-10-05T02:12:13.433Z,96.20
2018-10-05T02:14:41.677Z,96.10
2018-10-05T02:17:10.096Z,96.20
2018-10-05T02:19:38.429Z,96.20
2018-10-05T02:22:06.858Z,96.30
2018-10-05T02:24:35.137Z,96.20
2018-10-05T02:27:03.486Z,96.30
2018-10-05T02:29:31.749Z,96.60
2018-10-05T02:32:00.012Z,96.30
2018-10-05T02:34:28.286Z,96.50
2018-10-05T02:36:56.509Z,96.40
2018-10-05T02:39:24.826Z,96.40
2018-10-05T02:41:53.121Z,96.50
2018-10-05T02:44:21.466Z,96.50
2018-10-05T02:46:49.693Z,96.60
2018-10-05T02:49:17.961Z,96.60
2018-10-05T02:51:46.371Z,96.60
2018-10-05T02:54:14.685Z,96.80
2018-10-05T02:56:42.959Z,96.90
2018-10-05T02:59:11.201Z,96.90
2018-10-05T03:01:50.805Z,96.90
2018-10-05T03:04:19.061Z,96.80
2018-10-05T03:06:47.259Z,96.80
2018-10-05T03:09:15.494Z,96.80
2018-10-05T03:11:43.774Z,96.80
2018-10-05T03:14:12.114Z,96.70
2018-10-05T03:16:40.405Z,96.70
2018-10-05T03:24:01.701Z,96.40
2018-10-05T03:26:29.970Z,96.20
2018-10-05T03:28:58.601Z,96.00
2018-10-05T03:31:26.905Z,96.10
2018-10-05T03:33:55.214Z,96.10
2018-10-05T03:36:24.365Z,96.10
2018-10-05T03:38:52.701Z,96.20
2018-10-05T03:41:21.083Z,96.20
2018-10-05T03:43:49.406Z,96.40
2018-10-05T03:46:17.737Z,96.40
2018-10-05T03:48:46.035Z,96.30
2018-10-05T03:51:14.282Z,96.40
2018-10-05T03:53:42.894Z,96.40
2018-10-05T03:56:11.154Z,96.40
2018-10-05T03:58:39.350Z,96.50
2018-10-05T04:01:07.650Z,96.70
2018-10-05T04:03:35.959Z,96.90
2018-10-05T04:06:04.457Z,97.30
2018-10-05T04:08:32.761Z,97.00
2018-10-05T04:11:01.035Z,97.10
2018-10-05T04:13:29.385Z,97.00
2018-10-05T04:15:58.691Z,97.10
2018-10-05T04:18:27.046Z,97.10
2018-10-05T04:20:55.337Z,96.90
2018-10-05T04:23:23.695Z,96.60
2018-10-05T04:25:51.997Z,96.30
2018-10-05T04:28:20.307Z,96.30
2018-10-05T04:30:48.759Z,95.90
2018-10-05T04:33:17.014Z,95.70
2018-10-05T04:35:45.297Z,95.40
2018-10-05T04:38:13.609Z,95.40
2018-10-05T04:40:42.129Z,95.40
2018-10-05T04:43:10.599Z,94.70
2018-10-05T04:45:38.887Z,93.80
2018-10-05T04:48:07.083Z,93.20
2018-10-05T04:50:35.390Z,93.00
2018-10-05T04:53:03.621Z,92.90
2018-10-05T04:57:53.838Z,93.10
2018-10-05T05:00:22.058Z,92.80
2018-10-05T05:02:50.306Z,92.80
2018-10-05T05:05:18.546Z,93.10
2018-10-05T05:07:46.822Z,93.30
2018-10-05T05:10:15.113Z,93.50
2018-10-05T05:12:43.473Z,93.40
2018-10-05T05:15:11.706Z,93.50
2018-10-05T05:17:40.223Z,93.50
2018-10-05T05:20:08.511Z,93.80
2018-10-05T05:22:36.874Z,93.90
2018-10-05T05:25:05.215Z,93.80
2018-10-05T05:27:33.521Z,93.80
2018-10-05T05:30:03.523Z,93.80
2018-10-05T05:32:31.717Z,93.80
2018-10-05T05:34:59.978Z,94.00
2018-10-05T05:37:28.365Z,93.90
2018-10-05T05:39:56.637Z,94.10
2018-10-05T05:42:25.178Z,94.30
2018-10-05T05:44:53.439Z,94.30
2018-10-05T05:47:21.817Z,94.40
2018-10-05T05:49:50.186Z,94.60
2018-10-05T05:52:19.330Z,94.70
2018-10-05T05:54:47.727Z,94.70
2018-10-05T05:57:16.006Z,94.80
2018-10-05T05:59:44.360Z,94.70
2018-10-05T06:02:18.982Z,94.60
2018-10-05T06:04:47.398Z,94.40
2018-10-05T06:07:16.004Z,94.20
2018-10-05T06:09:44.494Z,93.90
2018-10-05T06:12:12.994Z,93.90
2018-10-05T06:14:41.568Z,93.80
2018-10-05T06:17:10.090Z,93.60
2018-10-05T06:19:39.599Z,93.30
2018-10-05T06:22:08.079Z,93.10
2018-10-05T06:24:36.506Z,93.00
2018-10-05T06:27:05.110Z,92.70
2018-10-05T06:29:33.709Z,92.80
2018-10-05T06:32:02.119Z,92.90
2018-10-05T06:34:30.749Z,93.70
2018-10-05T06:36:59.320Z,92.80
2018-10-05T06:39:27.644Z,92.80
2018-10-05T06:41:56.090Z,93.00
2018-10-05T06:44:24.296Z,93.30
2018-10-05T06:46:52.605Z,93.20
2018-10-05T06:49:21.377Z,93.30
2018-10-05T06:51:49.678Z,93.20
2018-10-05T06:54:17.925Z,93.00
2018-10-05T06:56:46.172Z,92.40
2018-10-05T06:59:15.288Z,92.00
2018-10-05T07:01:43.551Z,91.60
2018-10-05T07:04:11.785Z,91.70
2018-10-05T07:06:40.081Z,91.30
2018-10-05T07:09:08.872Z,91.00
2018-10-05T07:11:37.353Z,91.00
2018-10-05T07:14:05.797Z,90.40
2018-10-05T07:16:34.288Z,89.80
2018-10-05T07:19:02.615Z,87.90
2018-10-05T07:21:30.960Z,87.40
2018-10-05T07:23:59.125Z,86.60
2018-10-05T07:26:27.522Z,85.20
2018-10-05T07:28:55.811Z,84.60
2018-10-05T07:31:24.017Z,84.20
2018-10-05T07:33:52.409Z,84.90
2018-10-05T07:36:20.599Z,83.30
2018-10-05T07:38:48.992Z,83.90
2018-10-05T07:41:17.246Z,82.60
2018-10-05T07:43:45.414Z,80.40
2018-10-05T07:46:13.617Z,81.20
2018-10-05T07:48:41.833Z,81.50
2018-10-05T07:51:10.381Z,78.10
2018-10-05T07:53:38.714Z,78.10
2018-10-05T07:57:56.701Z,78.70
2018-10-05T08:00:25.043Z,78.60
2018-10-05T08:02:53.253Z,74.50
2018-10-05T08:05:21.472Z,72.60
2018-10-05T08:07:49.700Z,70.50
2018-10-05T08:10:19.246Z,69.30
2018-10-05T08:12:47.502Z,66.40
2018-10-05T08:15:15.733Z,59.90
2018-10-05T08:17:43.968Z,55.30
2018-10-05T08:20:12.165Z,52.60
2018-10-05T08:22:40.421Z,47.70
2018-10-05T08:25:08.691Z,46.50
2018-10-05T08:27:37.157Z,45.50
2018-10-05T08:30:06.508Z,42.10
2018-10-05T08:32:36.474Z,43.40
2018-10-05T08:35:04.805Z,41.50
2018-10-05T08:37:33.025Z,39.20
2018-10-05T08:40:01.423Z,39.80
2018-10-05T08:42:29.797Z,39.80
2018-10-05T08:44:58.073Z,40.00
2018-10-05T08:47:26.317Z,39.60
2018-10-05T08:49:54.607Z,39.90
2018-10-05T08:52:23.202Z,39.00
2018-10-05T08:54:51.536Z,38.30
2018-10-05T08:57:19.801Z,38.60
2018-10-05T08:59:48.133Z,38.30
2018-10-05T09:02:16.505Z,38.00
2018-10-05T09:04:44.750Z,36.70
2018-10-05T09:07:12.951Z,36.10
2018-10-05T09:09:41.367Z,35.70
2018-10-05T09:12:10.506Z,35.70
2018-10-05T09:14:38.949Z,34.40
2018-10-05T09:17:07.284Z,34.90
2018-10-05T09:19:35.566Z,35.30
2018-10-05T09:22:05.973Z,36.20
2018-10-05T09:24:34.158Z,35.30
2018-10-05T09:27:02.465Z,36.80
2018-10-05T09:29:30.958Z,37.10
2018-10-05T09:31:59.743Z,35.20
2018-10-05T09:34:29.508Z,34.60
2018-10-05T09:36:57.791Z,36.30
2018-10-05T09:39:26.133Z,36.10
2018-10-05T09:41:54.336Z,35.60
2018-10-05T09:44:22.622Z,36.40
2018-10-05T09:46:50.909Z,34.50
2018-10-05T09:49:19.181Z,35.00
2018-10-05T09:51:47.691Z,33.90
2018-10-05T09:54:16.060Z,34.50
2018-10-05T09:56:44.273Z,35.70
2018-10-05T09:59:12.502Z,34.70
2018-10-05T10:01:47.185Z,35.10
2018-10-05T10:04:15.512Z,35.10
2018-10-05T10:06:43.940Z,36.20
2018-10-05T10:09:12.232Z,35.70
2018-10-05T10:11:40.439Z,36.60
2018-10-05T10:14:09.370Z,38.00
2018-10-05T10:16:37.583Z,38.80
2018-10-05T10:23:59.307Z,40.10
2018-10-05T10:26:27.617Z,43.70
2018-10-05T10:28:56.030Z,44.70
2018-10-05T10:31:24.438Z,45.40
2018-10-05T10:33:52.642Z,45.70
2018-10-05T10:36:21.882Z,46.00
2018-10-05T10:38:50.861Z,46.20
2018-10-05T10:41:19.261Z,45.70
2018-10-05T10:43:47.485Z,46.00
2018-10-05T10:46:15.703Z,46.20
2018-10-05T10:48:44.054Z,46.10
2018-10-05T10:51:12.328Z,46.00
2018-10-05T10:53:40.552Z,45.00
2018-10-05T10:56:09.029Z,45.40
2018-10-05T10:58:37.397Z,44.70
2018-10-05T11:01:06.105Z,44.90
2018-10-05T11:03:35.047Z,45.80
2018-10-05T11:06:03.321Z,45.00
2018-10-05T11:08:31.594Z,44.90
2018-10-05T11:10:59.837Z,44.80
2018-10-05T11:13:28.025Z,44.90
2018-10-05T11:15:56.231Z,44.90
2018-10-05T11:18:24.501Z,44.70
2018-10-05T11:20:52.702Z,44.10
2018-10-05T11:23:21.045Z,44.30
2018-10-05T11:25:49.305Z,44.40
2018-10-05T11:28:17.536Z,43.80
2018-10-05T11:30:45.766Z,43.80
2018-10-05T11:33:14.027Z,44.40
2018-10-05T11:35:42.236Z,43.60
2018-10-05T11:38:11.361Z,44.20
2018-10-05T11:40:39.684Z,43.20
2018-10-05T11:43:08.049Z,43.50
2018-10-05T11:45:36.329Z,43.30
2018-10-05T11:48:04.504Z,43.60
2018-10-05T11:50:32.737Z,44.20
2018-10-05T11:53:00.921Z,43.80
2018-10-05T11:55:29.246Z,43.10
2018-10-05T11:57:57.710Z,44.10
2018-10-05T12:00:25.887Z,43.40
2018-10-05T12:02:54.079Z,42.60
2018-10-05T12:05:22.506Z,43.10
2018-10-05T12:07:50.805Z,42.40
2018-10-05T12:10:19.369Z,42.40
2018-10-05T12:12:47.830Z,41.40
2018-10-05T12:15:16.187Z,41.60
2018-10-05T12:17:45.383Z,41.00
2018-10-05T12:20:13.657Z,41.00
2018-10-05T12:22:42.377Z,41.40
2018-10-05T12:25:10.641Z,42.00
2018-10-05T12:27:38.873Z,41.50
2018-10-05T12:30:07.148Z,41.20
2018-10-05T12:32:35.637Z,40.80
2018-10-05T12:35:04.408Z,40.90
2018-10-05T12:37:32.629Z,41.10
2018-10-05T12:44:54.673Z,41.00
2018-10-05T13:06:03.988Z,38.20
2018-10-05T13:08:32.860Z,39.40
2018-10-05T13:11:01.375Z,40.10
2018-10-05T13:13:30.028Z,40.90
2018-10-05T13:15:58.463Z,40.40
2018-10-05T13:18:27.019Z,40.70
2018-10-05T13:20:55.481Z,40.20
2018-10-05T13:23:23.949Z,40.10
2018-10-05T13:25:52.816Z,39.10
2018-10-05T13:28:21.280Z,38.00
2018-10-05T13:30:50.669Z,39.10
2018-10-05T13:33:19.199Z,38.60
2018-10-05T13:35:47.981Z,38.70
2018-10-05T13:38:16.513Z,38.60
2018-10-05T13:46:31.090Z,38.10
2018-10-05T13:49:00.674Z,39.10
2018-10-05T13:51:29.417Z,39.40
2018-10-05T13:53:57.800Z,39.30
2018-10-05T13:56:26.182Z,39.60
2018-10-05T13:58:54.736Z,40.00
2018-10-05T14:01:23.213Z,40.30
2018-10-05T14:03:52.098Z,39.20
2018-10-05T14:06:20.595Z,39.90
2018-10-05T14:08:49.012Z,40.60
2018-10-05T14:11:17.415Z,40.80
2018-10-05T14:13:46.208Z,40.80
2018-10-05T14:16:15.132Z,40.70
2018-10-05T14:18:43.948Z,40.50
2018-10-05T14:21:13.110Z,40.50
2018-10-05T14:23:43.959Z,40.80
2018-10-05T14:26:16.098Z,41.20
2018-10-05T14:28:46.453Z,41.50
2018-10-05T14:31:15.421Z,40.50
2018-10-05T14:33:44.256Z,39.40
2018-10-05T14:36:13.939Z,40.30
2018-10-05T14:38:43.383Z,41.40
2018-10-05T14:46:57.368Z,41.50
2018-10-05T14:49:26.499Z,41.30
2018-10-05T14:51:54.973Z,41.80
2018-10-05T14:54:24.563Z,42.30
2018-10-05T14:56:53.173Z,42.40
2018-10-05T14:59:21.760Z,42.70
2018-10-05T15:07:36.149Z,43.30
2018-10-05T15:10:04.620Z,42.80
2018-10-05T15:12:35.566Z,43.10
2018-10-05T15:15:04.246Z,42.30
2018-10-05T15:22:25.771Z,41.90
2018-10-05T15:24:54.764Z,42.20
2018-10-05T15:27:25.563Z,42.70
2018-10-05T15:29:54.431Z,43.10
2018-10-05T15:32:24.013Z,43.40
2018-10-05T15:34:52.658Z,43.20
2018-10-05T15:37:21.076Z,43.80
2018-10-05T15:39:49.412Z,43.10
2018-10-05T15:42:17.629Z,43.00
2018-10-05T15:44:46.074Z,43.00
2018-10-05T15:47:19.345Z,43.20
2018-10-05T15:49:48.689Z,42.40
2018-10-05T15:52:17.232Z,41.40
2018-10-05T15:57:29.672Z,42.50
2018-10-05T15:59:57.894Z,42.80
2018-10-05T16:02:26.108Z,42.00
2018-10-05T16:04:54.315Z,41.90
2018-10-05T16:07:22.621Z,41.60
2018-10-05T16:09:50.990Z,41.50
2018-10-05T16:12:19.315Z,43.20
2018-10-05T16:14:48.624Z,43.40
2018-10-05T16:17:16.795Z,43.50
2018-10-05T16:19:45.081Z,43.80
2018-10-05T16:22:13.613Z,45.60
2018-10-05T16:24:43.690Z,45.30
2018-10-05T16:27:12.920Z,45.00
2018-10-05T16:29:42.771Z,46.00
2018-10-05T16:32:11.546Z,46.40
2018-10-05T16:34:39.971Z,46.30
2018-10-05T16:37:08.266Z,47.10
2018-10-05T16:39:36.474Z,47.90
2018-10-05T16:42:04.914Z,48.50
2018-10-05T16:44:33.162Z,49.40
2018-10-05T16:47:01.454Z,50.70
2018-10-05T16:49:29.730Z,50.30
2018-10-05T16:51:58.001Z,50.70
2018-10-05T16:54:26.196Z,51.00
2018-10-05T16:56:54.424Z,51.20
2018-10-05T16:59:22.889Z,52.20
2018-10-05T17:01:51.278Z,52.00
2018-10-05T17:04:20.090Z,52.20
2018-10-05T17:09:28.081Z,52.90
2018-10-05T17:11:56.404Z,53.90
2018-10-05T17:14:24.995Z,54.20
2018-10-05T17:16:53.377Z,54.40
2018-10-05T17:19:21.578Z,54.90
2018-10-05T17:21:49.915Z,56.00
2018-10-05T17:24:18.107Z,56.90
2018-10-05T17:26:46.446Z,57.20
2018-10-05T17:29:14.673Z,57.60
2018-10-05T17:31:43.106Z,57.50
2018-10-05T17:34:11.305Z,57.70
2018-10-05T17:36:39.590Z,58.00
2018-10-05T17:39:09.388Z,58.00
2018-10-05T17:41:38.505Z,58.10
2018-10-05T17:44:06.918Z,58.60
2018-10-05T17:46:35.395Z,59.30
2018-10-05T17:49:04.389Z,60.50
2018-10-05T17:51:34.912Z,61.00
2018-10-05T17:54:03.363Z,62.10
2018-10-05T17:56:31.668Z,62.90
2018-10-05T17:59:00.071Z,63.10
2018-10-05T18:01:28.371Z,63.10
2018-10-05T18:03:56.710Z,63.80
2018-10-05T18:06:25.011Z,64.60
2018-10-05T18:08:53.357Z,64.90
2018-10-05T18:11:21.658Z,65.60
2018-10-05T18:13:50.232Z,66.30
2018-10-05T18:16:19.359Z,67.10
2018-10-05T18:18:48.182Z,67.70
2018-10-05T18:21:23.645Z,68.50
2018-10-05T18:23:51.893Z,69.10
2018-10-05T18:26:20.170Z,69.60
2018-10-05T18:28:48.470Z,69.50
2018-10-05T18:31:17.135Z,69.60
2018-10-05T18:33:45.490Z,70.00
2018-10-05T18:36:14.067Z,70.00
2018-10-05T18:38:45.441Z,70.10
2018-10-05T18:41:16.221Z,70.00
2018-10-05T18:46:33.338Z,70.80
2018-10-05T18:49:02.093Z,71.30
2018-10-05T18:51:30.367Z,71.40
2018-10-05T18:54:05.318Z,72.30
2018-10-05T18:56:45.111Z,72.90
2018-10-05T18:59:19.071Z,73.60
2018-10-05T19:01:47.279Z,74.00
2018-10-05T19:04:15.629Z,74.10
2018-10-05T19:06:43.976Z,74.40
2018-10-05T19:09:13.555Z,74.70
2018-10-05T19:11:42.122Z,75.00
2018-10-05T19:14:10.630Z,74.70
2018-10-05T19:16:39.000Z,74.40
2018-10-05T19:19:08.503Z,75.10
2018-10-05T19:21:36.815Z,75.30
2018-10-05T19:24:05.177Z,75.70
2018-10-05T19:26:33.897Z,76.40
2018-10-05T19:29:02.480Z,77.10
2018-10-05T19:31:32.326Z,77.10
2018-10-05T19:34:00.765Z,76.80
2018-10-05T19:36:29.349Z,77.50
2018-10-05T19:38:57.862Z,76.80
2018-10-05T19:41:27.303Z,77.20
2018-10-05T19:43:55.609Z,77.60
2018-10-05T19:46:23.960Z,77.40
2018-10-05T19:48:52.338Z,77.10
2018-10-05T19:51:20.702Z,76.40
2018-10-05T19:53:49.105Z,76.20
2018-10-05T19:56:18.384Z,76.00
2018-10-05T19:58:48.852Z,75.60
2018-10-05T20:01:17.551Z,75.60
2018-10-05T20:03:46.024Z,75.80
2018-10-05T20:06:14.356Z,75.70
2018-10-05T20:08:42.682Z,75.80
2018-10-05T20:11:11.131Z,75.70
2018-10-05T20:13:39.748Z,75.70
2018-10-05T20:16:09.450Z,76.10
2018-10-05T20:18:39.248Z,76.40
2018-10-05T20:21:07.899Z,76.70
2018-10-05T20:23:43.952Z,77.00
2018-10-05T20:26:12.412Z,77.20
2018-10-05T20:28:41.918Z,77.00
2018-10-05T20:31:11.750Z,77.30
2018-10-05T20:33:41.385Z,77.50
2018-10-05T20:36:09.886Z,77.20
2018-10-05T20:38:45.145Z,76.70
2018-10-05T20:41:13.709Z,76.50
2018-10-05T20:43:42.220Z,76.50
2018-10-05T20:46:10.461Z,76.70
2018-10-05T20:48:38.857Z,76.90
2018-10-05T20:51:07.117Z,76.80
2018-10-05T20:53:35.384Z,76.60
2018-10-05T20:56:03.801Z,76.50
2018-10-05T20:58:33.157Z,76.80
2018-10-05T21:01:01.473Z,77.20
2018-10-05T21:03:29.712Z,77.50
2018-10-05T21:05:58.077Z,77.20
2018-10-05T21:08:26.617Z,76.90
2018-10-05T21:10:54.877Z,76.60
2018-10-05T21:13:23.046Z,76.60
2018-10-05T21:15:51.355Z,76.70
2018-10-05T21:18:19.706Z,76.60
2018-10-05T21:20:48.221Z,76.90
2018-10-05T21:23:17.461Z,77.00
2018-10-05T21:25:45.672Z,77.20
2018-10-05T21:28:14.845Z,77.70
2018-10-05T21:30:43.226Z,78.00
2018-10-05T21:33:11.531Z,78.40
2018-10-05T21:35:41.450Z,78.80
2018-10-05T21:38:09.937Z,79.00
2018-10-05T21:40:38.192Z,79.30
2018-10-05T21:43:06.597Z,79.50
2018-10-05T21:45:35.081Z,80.00
2018-10-05T21:48:03.251Z,81.40
2018-10-05T21:50:31.620Z,80.80
2018-10-05T21:53:01.002Z,82.10
2018-10-05T21:55:29.509Z,81.80
2018-10-05T21:57:57.768Z,82.10
2018-10-05T22:00:29.726Z,82.60
2018-10-05T22:02:58.021Z,82.80
2018-10-05T22:05:26.305Z,82.90
2018-10-05T22:07:54.549Z,83.30
2018-10-05T22:10:22.913Z,83.60
2018-10-05T22:12:52.242Z,83.80
2018-10-05T22:15:20.779Z,83.90
2018-10-05T22:17:50.196Z,84.60
2018-10-05T22:20:18.554Z,84.60
2018-10-05T22:22:49.003Z,84.70
2018-10-05T22:25:18.487Z,85.00
2018-10-05T22:27:46.785Z,84.80
2018-10-05T22:30:14.992Z,84.70
2018-10-05T22:32:43.308Z,85.00
2018-10-05T22:35:12.071Z,85.30
2018-10-05T22:37:40.982Z,85.30
2018-10-05T22:40:09.271Z,85.70
2018-10-05T22:42:44.010Z,86.00
2018-10-05T22:45:12.378Z,86.10
2018-10-05T22:47:40.682Z,86.00
2018-10-05T22:50:08.982Z,86.10
2018-10-05T22:52:37.138Z,86.10
2018-10-05T22:55:05.391Z,86.10
2018-10-05T22:57:33.565Z,86.10
2018-10-05T23:00:02.093Z,86.10
2018-10-05T23:02:30.306Z,85.90
2018-10-05T23:04:58.563Z,86.00
2018-10-05T23:07:26.758Z,86.20
2018-10-05T23:09:55.094Z,86.40
2018-10-05T23:12:23.520Z,86.50
2018-10-05T23:14:52.025Z,86.60
2018-10-05T23:17:20.476Z,86.90
2018-10-05T23:19:48.638Z,86.90
2018-10-05T23:22:16.849Z,87.20
2018-10-05T23:24:44.998Z,87.20
2018-10-05T23:27:14.938Z,87.90
2018-10-05T23:29:43.138Z,87.80
2018-10-05T23:32:11.398Z,87.80
2018-10-05T23:34:39.641Z,88.50
2018-10-05T23:37:07.799Z,88.80
2018-10-05T23:39:36.080Z,89.20
2018-10-05T23:42:04.305Z,90.20
2018-10-05T23:44:33.428Z,90.00
2018-10-05T23:47:01.869Z,90.30
2018-10-05T23:49:30.166Z,90.40
2018-10-05T23:52:04.486Z,90.50
2018-10-05T23:54:32.666Z,90.60
2018-10-05T23:57:01.090Z,90.70
2018-10-05T23:59:29.495Z,90.80
